Blidosund — SDKG — position and weather

sailwx.info

Track history (hours):
 
Tides and Currents Weather Stations Pressure Air Temp Water Temp Dewpoint Dewpoint Depression Visibility Wind Speed Wind Dir Waves Ship Positions

Blidosund

Last reported at 2016-Dec-11 03:34 UTC. Time now 2016-Dec-11 04:16 UTC.
Position N 59°20' E 018°05'.

Length 33 m.

Type: Ship. MMSI: 265522680.

Date/timePositionNaut miles runAvg speedWind from/ knotsBaromVisibWave heightAir tempDewpointWater temp
2016-Dec-11 03:34N 59°20' E 018°05'0 0.0
2016-Dec-11 02:33N 59°20' E 018°05'0 0.0
2016-Dec-11 01:33N 59°20' E 018°05'0 0.0
2016-Dec-11 00:33N 59°20' E 018°05'0 0.0
2016-Dec-10 23:34N 59°20' E 018°05'0 0.0
2016-Dec-10 22:33N 59°20' E 018°05'0 0.0
2016-Dec-10 21:34N 59°20' E 018°05'0 0.0
2016-Dec-10 20:33N 59°20' E 018°05'2 1.6
2016-Dec-10 19:34N 59°19' E 018°02'1 1.5
2016-Dec-10 18:33N 59°18' E 018°05'1 1.4
2016-Dec-10 17:34N 59°20' E 018°05'2 2.3
2016-Dec-10 16:34N 59°19' E 018°09'2 1.9
2016-Dec-10 15:25N 59°20' E 018°13'4 5.0
2016-Dec-10 14:33N 59°19' E 018°05'0 0.2
2016-Dec-10 13:33N 59°20' E 018°05'4 4.0
2016-Dec-10 12:34N 59°20' E 018°12'2 1.6
2016-Dec-10 11:33N 59°19' E 018°10'3 2.7
2016-Dec-10 10:33N 59°20' E 018°05'0 0.0
2016-Dec-10 09:33N 59°20' E 018°05'0 0.0
2016-Dec-10 08:33N 59°20' E 018°05'0 0.0
2016-Dec-10 07:34N 59°20' E 018°05'0 0.0
2016-Dec-10 06:34N 59°20' E 018°05'0 0.0
2016-Dec-10 05:34N 59°20' E 018°05'0 0.0
2016-Dec-10 04:33N 59°20' E 018°05'0 0.0
2016-Dec-10 03:33N 59°20' E 018°05'0 0.0
2016-Dec-10 02:33N 59°20' E 018°05'0 0.0
2016-Dec-10 01:33N 59°20' E 018°05'0 0.0
2016-Dec-10 00:33N 59°20' E 018°05'0 0.0
2016-Dec-09 23:34N 59°20' E 018°05'0 0.0
2016-Dec-09 22:34N 59°20' E 018°05'0 0.0
2016-Dec-09 21:33N 59°20' E 018°05'0 0.0
2016-Dec-09 20:33N 59°20' E 018°05'1 1.4
2016-Dec-09 19:34N 59°19' E 018°07'3 3.3
2016-Dec-09 18:33N 59°18' E 018°13'5 4.7
2016-Dec-09 17:34N 59°20' E 018°05'0 0.0
2016-Dec-09 16:33N 59°20' E 018°05'4 4.3
2016-Dec-09 15:33N 59°20' E 018°13'2 1.6
2016-Dec-09 14:33N 59°19' E 018°10'3 2.9
2016-Dec-09 13:33N 59°20' E 018°05'2 1.6
2016-Dec-09 12:34N 59°19' E 018°08'1 0.8
2016-Dec-09 11:34N 59°19' E 018°09'2 2.4
2016-Dec-09 10:33N 59°20' E 018°05'0 0.0
2016-Dec-09 09:33N 59°20' E 018°05'0 0.0
2016-Dec-09 08:33N 59°20' E 018°05'0 0.0
2016-Dec-09 07:33N 59°20' E 018°05'0 0.0
2016-Dec-09 06:33N 59°20' E 018°05'0 0.0
2016-Dec-09 05:34N 59°20' E 018°05'0 0.0
2016-Dec-09 04:34N 59°20' E 018°05'0 0.0
2016-Dec-09 03:34N 59°20' E 018°05'0 0.0
2016-Dec-09 02:34N 59°20' E 018°05'0 0.0
2016-Dec-09 01:33N 59°20' E 018°05'0 0.0
2016-Dec-09 00:33N 59°20' E 018°05'0 0.0
2016-Dec-08 23:33N 59°20' E 018°05'0 0.0
2016-Dec-08 22:33N 59°20' E 018°05'0 0.0
2016-Dec-08 21:33N 59°20' E 018°05'0 0.0
2016-Dec-08 20:33N 59°20' E 018°05'1 1.5
2016-Dec-08 19:33N 59°18' E 018°05'2 1.7
2016-Dec-08 18:33N 59°19' E 018°02'2 1.7
2016-Dec-08 17:33N 59°20' E 018°05'0 0.0
2016-Dec-08 16:33N 59°20' E 018°05'4 4.2
2016-Dec-08 15:34N 59°20' E 018°13'1 1.4
2016-Dec-08 14:34N 59°20' E 018°10'3 2.8
2016-Dec-08 13:34N 59°20' E 018°05'2 2.4
2016-Dec-08 12:34N 59°19' E 018°09'0 0.4
2016-Dec-08 11:34N 59°19' E 018°10'3 2.9
2016-Dec-08 10:34N 59°20' E 018°05'0 0.0
2016-Dec-08 09:34N 59°20' E 018°05'0 0.0
2016-Dec-08 08:33N 59°20' E 018°05'0 0.0
2016-Dec-08 07:34N 59°20' E 018°05'0 0.0
2016-Dec-08 06:34N 59°20' E 018°05'0 0.0
2016-Dec-08 05:34N 59°20' E 018°05'0 0.0
2016-Dec-08 04:34N 59°20' E 018°05'0 0.0
2016-Dec-08 03:34N 59°20' E 018°05'0 0.0
2016-Dec-08 02:33N 59°20' E 018°05'0 0.0
2016-Dec-08 01:33N 59°20' E 018°05'0 0.0
2016-Dec-08 00:33N 59°20' E 018°05'0 0.0
2016-Dec-07 23:34N 59°20' E 018°05'0 0.0
2016-Dec-07 22:33N 59°20' E 018°05'0 0.0
2016-Dec-07 21:34N 59°20' E 018°05'0 0.0
2016-Dec-07 20:34N 59°20' E 018°05'3 2.5
2016-Dec-07 19:34N 59°19' E 018°09'2 1.9
2016-Dec-07 18:29N 59°19' E 018°13'5 4.9
2016-Dec-07 17:34N 59°20' E 018°05'0 0.0
2016-Dec-07 16:34N 59°20' E 018°05'4 4.3
2016-Dec-07 15:32N 59°20' E 018°13'2 1.8
2016-Dec-07 14:33N 59°19' E 018°10'3 2.7
2016-Dec-07 13:33N 59°20' E 018°05'2 1.5
2016-Dec-07 12:34N 59°19' E 018°07'1 1.0
2016-Dec-07 11:34N 59°19' E 018°09'3 2.5
2016-Dec-07 10:34N 59°20' E 018°05'0 0.0
2016-Dec-07 09:34N 59°20' E 018°05'0 0.0
2016-Dec-07 08:34N 59°20' E 018°05'0 0.0
2016-Dec-07 07:33N 59°20' E 018°05'0 0.0
2016-Dec-07 06:33N 59°20' E 018°05'0 0.0
2016-Dec-07 05:34N 59°20' E 018°05'0 0.0
2016-Dec-07 04:33N 59°20' E 018°05'0 0.0
2016-Dec-07 03:34N 59°20' E 018°05'0 0.0
2016-Dec-07 02:34N 59°20' E 018°05'0 0.0
2016-Dec-07 01:34N 59°20' E 018°05'0 0.0
2016-Dec-07 00:33N 59°20' E 018°05'0 0.0
2016-Dec-06 23:34N 59°20' E 018°05'0 0.0
2016-Dec-06 22:34N 59°20' E 018°05'0 0.0
2016-Dec-06 21:33N 59°20' E 018°05'0 0.0
2016-Dec-06 20:33N 59°20' E 018°05'5 2.3
2016-Dec-06 18:33N 59°18' E 018°13'5 4.6
2016-Dec-06 17:34N 59°20' E 018°05'0 0.1
2016-Dec-06 16:33N 59°20' E 018°05'5 4.5
2016-Dec-06 15:33N 59°19' E 018°13'3 2.7
2016-Dec-06 14:34N 59°19' E 018°08'2 1.9
2016-Dec-06 13:33N 59°20' E 018°05'2 1.7
2016-Dec-06 12:34N 59°19' E 018°08'1 0.6
2016-Dec-06 11:34N 59°19' E 018°09'2 2.2
2016-Dec-06 10:33N 59°20' E 018°05'0 0.0
2016-Dec-06 09:33N 59°20' E 018°05'0 0.0
2016-Dec-06 08:34N 59°20' E 018°05'0 0.0
2016-Dec-06 07:33N 59°20' E 018°05'0 0.0
2016-Dec-06 06:33N 59°20' E 018°05'0 0.0
2016-Dec-06 05:34N 59°20' E 018°05'0 0.0
2016-Dec-06 04:33N 59°20' E 018°05'0 0.0
2016-Dec-06 03:33N 59°20' E 018°05'0 0.0
2016-Dec-06 02:34N 59°20' E 018°05'0 0.0
2016-Dec-06 01:33N 59°20' E 018°05'0 0.0
2016-Dec-06 00:33N 59°20' E 018°05'0 0.0
2016-Dec-05 23:34N 59°20' E 018°05'0 0.0
2016-Dec-05 22:33N 59°20' E 018°05'0 0.0
2016-Dec-05 21:34N 59°20' E 018°05'0 0.0
2016-Dec-05 20:33N 59°20' E 018°05'2 2.0
2016-Dec-05 19:34N 59°19' E 018°08'2 2.1
2016-Dec-05 18:22N 59°20' E 018°13'4 5.4
2016-Dec-05 17:33N 59°20' E 018°05'0 0.0
2016-Dec-05 16:33N 59°20' E 018°05'4 4.0
2016-Dec-05 15:34N 59°20' E 018°12'1 1.1
2016-Dec-05 14:34N 59°19' E 018°11'3 3.2
2016-Dec-05 13:34N 59°20' E 018°05'2 1.6
2016-Dec-05 12:33N 59°19' E 018°08'0 0.4
2016-Dec-05 11:34N 59°19' E 018°08'2 2.1
2016-Dec-05 10:34N 59°20' E 018°05'0 0.0
2016-Dec-05 09:34N 59°20' E 018°05'0 0.0
2016-Dec-05 08:33N 59°20' E 018°05'0 0.0
2016-Dec-05 07:33N 59°20' E 018°05'0 0.0
2016-Dec-05 06:34N 59°20' E 018°05'0 0.0
2016-Dec-05 05:34N 59°20' E 018°05'0 0.0
2016-Dec-05 04:33N 59°20' E 018°05'0 0.0
2016-Dec-05 03:34N 59°20' E 018°05'0 0.0
2016-Dec-05 02:33N 59°20' E 018°05'0 0.0
2016-Dec-05 01:33N 59°20' E 018°05'0 0.0
2016-Dec-05 00:33N 59°20' E 018°05'0 0.0
2016-Dec-04 23:34N 59°20' E 018°05'0 0.0
2016-Dec-04 22:33N 59°20' E 018°05'0 0.0
2016-Dec-04 21:34N 59°20' E 018°05'0 0.0
2016-Dec-04 20:34N 59°20' E 018°05'0 0.0
2016-Dec-04 19:33N 59°20' E 018°05'0 0.0
2016-Dec-04 18:34N 59°20' E 018°05'0 0.0
2016-Dec-04 17:34N 59°20' E 018°05'1 1.2
2016-Dec-04 16:33N 59°19' E 018°06'2 2.0
2016-Dec-04 15:34N 59°19' E 018°02'1 1.2
2016-Dec-04 14:34N 59°20' E 018°05'0 0.1
2016-Dec-04 13:33N 59°20' E 018°05'4 4.2
2016-Dec-04 12:30N 59°20' E 018°13'2 1.8
2016-Dec-04 11:33N 59°19' E 018°10'3 2.8
2016-Dec-04 10:33N 59°20' E 018°05'0 0.0
2016-Dec-04 09:33N 59°20' E 018°05'0 0.0
2016-Dec-04 08:33N 59°20' E 018°05'0 0.0
2016-Dec-04 07:33N 59°20' E 018°05'0 0.0
2016-Dec-04 06:33N 59°20' E 018°05'0 0.0
2016-Dec-04 05:33N 59°20' E 018°05'0 0.0
2016-Dec-04 04:33N 59°20' E 018°05'0 0.0
2016-Dec-04 03:33N 59°20' E 018°05'0 0.0
2016-Dec-04 02:33N 59°20' E 018°05'0 0.0
2016-Dec-04 01:33N 59°20' E 018°05'0 0.0
2016-Dec-04 00:33N 59°20' E 018°05'0 0.0
2016-Dec-03 23:33N 59°20' E 018°05'0 0.0
2016-Dec-03 22:33N 59°20' E 018°05'0 0.0
2016-Dec-03 21:33N 59°20' E 018°05'0 0.0
2016-Dec-03 20:33N 59°20' E 018°05'0 0.0
2016-Dec-03 19:33N 59°20' E 018°05'6 5.5
2016-Dec-03 18:32N 59°21' E 018°15'3 0.3
2016-Dec-03 09:33N 59°23' E 018°20'9 8.8
2016-Dec-03 08:33N 59°20' E 018°05'0 0.0
2016-Dec-03 07:33N 59°20' E 018°05'0 0.0
2016-Dec-03 06:33N 59°20' E 018°05'0 0.0
2016-Dec-03 05:33N 59°20' E 018°05'0 0.0
2016-Dec-03 04:33N 59°20' E 018°05'0 0.0
2016-Dec-03 03:33N 59°20' E 018°05'0 0.0
2016-Dec-03 02:33N 59°20' E 018°05'0 0.0
2016-Dec-03 01:33N 59°20' E 018°05'0 0.0
2016-Dec-03 00:33N 59°20' E 018°05'0 0.0
2016-Dec-02 23:33N 59°20' E 018°05'0 0.0
2016-Dec-02 22:33N 59°20' E 018°05'0 0.0
2016-Dec-02 21:33N 59°20' E 018°05'0 0.0
2016-Dec-02 20:33N 59°20' E 018°05'2 1.8
2016-Dec-02 19:33N 59°19' E 018°08'3 2.8
2016-Dec-02 18:34N 59°18' E 018°13'4 4.5
2016-Dec-02 17:34N 59°19' E 018°05'0 0.2
2016-Dec-02 16:33N 59°20' E 018°05'4 4.3
2016-Dec-02 15:32N 59°20' E 018°13'2 1.8
2016-Dec-02 14:33N 59°19' E 018°10'3 2.7
2016-Dec-02 13:33N 59°20' E 018°05'1 1.1
2016-Dec-02 12:33N 59°19' E 018°06'2 2.3
2016-Dec-02 11:33N 59°20' E 018°11'3 3.1
2016-Dec-02 10:33N 59°20' E 018°05'0 0.0
2016-Dec-02 09:33N 59°20' E 018°05'0 0.0
2016-Dec-02 08:33N 59°20' E 018°05'0 0.0
2016-Dec-02 07:33N 59°20' E 018°05'0 0.0
2016-Dec-02 06:33N 59°20' E 018°05'0 0.0
2016-Dec-02 05:33N 59°20' E 018°05'0 0.0
2016-Dec-02 04:33N 59°20' E 018°05'0 0.0
2016-Dec-02 03:33N 59°20' E 018°05'0 0.0
2016-Dec-02 02:33N 59°20' E 018°05'0 0.0
2016-Dec-02 01:33N 59°20' E 018°05'0 0.0
2016-Dec-02 00:33N 59°20' E 018°05'0 0.0
2016-Dec-01 23:33N 59°20' E 018°05'0 0.0
2016-Dec-01 22:33N 59°20' E 018°05'0 0.0
2016-Dec-01 21:33N 59°20' E 018°05'0 0.0
2016-Dec-01 20:33N 59°20' E 018°05'2 1.6
2016-Dec-01 19:33N 59°19' E 018°07'3 3.1
2016-Dec-01 18:33N 59°18' E 018°13'4 4.5
2016-Dec-01 17:33N 59°19' E 018°05'0 0.3
2016-Dec-01 16:33N 59°20' E 018°05'4 4.2
2016-Dec-01 15:33N 59°20' E 018°13'1 1.3
2016-Dec-01 14:33N 59°20' E 018°10'3 2.9
2016-Dec-01 13:33N 59°20' E 018°05'1 1.3
2016-Dec-01 12:33N 59°19' E 018°07'2 1.7
2016-Dec-01 11:33N 59°20' E 018°10'3 2.8
2016-Dec-01 10:33N 59°20' E 018°05'0 0.0
2016-Dec-01 09:33N 59°20' E 018°05'0 0.0
2016-Dec-01 08:33N 59°20' E 018°05'0 0.0
2016-Dec-01 07:33N 59°20' E 018°05'0 0.0
2016-Dec-01 06:33N 59°20' E 018°05'0 0.0
2016-Dec-01 05:33N 59°20' E 018°05'0 0.0
2016-Dec-01 04:33N 59°20' E 018°05'  
Track history (hours):
 
Tides and Currents Weather Stations Pressure Air Temp Water Temp Dewpoint Dewpoint Depression Visibility Wind Speed Wind Dir Waves Ship Positions

Blidosund

Last reported at 2016-Dec-11 03:34 UTC. Time now 2016-Dec-11 04:16 UTC.
Position N 59°20' E 018°05'.

Length 33 m.

Type: Ship. MMSI: 265522680.

Date/timePositionNaut miles runAvg speedWind from/ knotsBaromVisibWave heightAir tempDewpointWater temp
2016-Dec-11 03:34N 59°20' E 018°05'0 0.0
2016-Dec-11 02:33N 59°20' E 018°05'0 0.0
2016-Dec-11 01:33N 59°20' E 018°05'0 0.0
2016-Dec-11 00:33N 59°20' E 018°05'0 0.0
2016-Dec-10 23:34N 59°20' E 018°05'0 0.0
2016-Dec-10 22:33N 59°20' E 018°05'0 0.0
2016-Dec-10 21:34N 59°20' E 018°05'0 0.0
2016-Dec-10 20:33N 59°20' E 018°05'2 1.6
2016-Dec-10 19:34N 59°19' E 018°02'1 1.5
2016-Dec-10 18:33N 59°18' E 018°05'1 1.4
2016-Dec-10 17:34N 59°20' E 018°05'2 2.3
2016-Dec-10 16:34N 59°19' E 018°09'2 1.9
2016-Dec-10 15:25N 59°20' E 018°13'4 5.0
2016-Dec-10 14:33N 59°19' E 018°05'0 0.2
2016-Dec-10 13:33N 59°20' E 018°05'4 4.0
2016-Dec-10 12:34N 59°20' E 018°12'2 1.6
2016-Dec-10 11:33N 59°19' E 018°10'3 2.7
2016-Dec-10 10:33N 59°20' E 018°05'0 0.0
2016-Dec-10 09:33N 59°20' E 018°05'0 0.0
2016-Dec-10 08:33N 59°20' E 018°05'0 0.0
2016-Dec-10 07:34N 59°20' E 018°05'0 0.0
2016-Dec-10 06:34N 59°20' E 018°05'0 0.0
2016-Dec-10 05:34N 59°20' E 018°05'0 0.0
2016-Dec-10 04:33N 59°20' E 018°05'0 0.0
2016-Dec-10 03:33N 59°20' E 018°05'0 0.0
2016-Dec-10 02:33N 59°20' E 018°05'0 0.0
2016-Dec-10 01:33N 59°20' E 018°05'0 0.0
2016-Dec-10 00:33N 59°20' E 018°05'0 0.0
2016-Dec-09 23:34N 59°20' E 018°05'0 0.0
2016-Dec-09 22:34N 59°20' E 018°05'0 0.0
2016-Dec-09 21:33N 59°20' E 018°05'0 0.0
2016-Dec-09 20:33N 59°20' E 018°05'1 1.4
2016-Dec-09 19:34N 59°19' E 018°07'3 3.3
2016-Dec-09 18:33N 59°18' E 018°13'5 4.7
2016-Dec-09 17:34N 59°20' E 018°05'0 0.0
2016-Dec-09 16:33N 59°20' E 018°05'4 4.3
2016-Dec-09 15:33N 59°20' E 018°13'2 1.6
2016-Dec-09 14:33N 59°19' E 018°10'3 2.9
2016-Dec-09 13:33N 59°20' E 018°05'2 1.6
2016-Dec-09 12:34N 59°19' E 018°08'1 0.8
2016-Dec-09 11:34N 59°19' E 018°09'2 2.4
2016-Dec-09 10:33N 59°20' E 018°05'0 0.0
2016-Dec-09 09:33N 59°20' E 018°05'0 0.0
2016-Dec-09 08:33N 59°20' E 018°05'0 0.0
2016-Dec-09 07:33N 59°20' E 018°05'0 0.0
2016-Dec-09 06:33N 59°20' E 018°05'0 0.0
2016-Dec-09 05:34N 59°20' E 018°05'0 0.0
2016-Dec-09 04:34N 59°20' E 018°05'0 0.0
2016-Dec-09 03:34N 59°20' E 018°05'0 0.0
2016-Dec-09 02:34N 59°20' E 018°05'0 0.0
2016-Dec-09 01:33N 59°20' E 018°05'0 0.0
2016-Dec-09 00:33N 59°20' E 018°05'0 0.0
2016-Dec-08 23:33N 59°20' E 018°05'0 0.0
2016-Dec-08 22:33N 59°20' E 018°05'0 0.0
2016-Dec-08 21:33N 59°20' E 018°05'0 0.0
2016-Dec-08 20:33N 59°20' E 018°05'1 1.5
2016-Dec-08 19:33N 59°18' E 018°05'2 1.7
2016-Dec-08 18:33N 59°19' E 018°02'2 1.7
2016-Dec-08 17:33N 59°20' E 018°05'0 0.0
2016-Dec-08 16:33N 59°20' E 018°05'4 4.2
2016-Dec-08 15:34N 59°20' E 018°13'1 1.4
2016-Dec-08 14:34N 59°20' E 018°10'3 2.8
2016-Dec-08 13:34N 59°20' E 018°05'2 2.4
2016-Dec-08 12:34N 59°19' E 018°09'0 0.4
2016-Dec-08 11:34N 59°19' E 018°10'3 2.9
2016-Dec-08 10:34N 59°20' E 018°05'0 0.0
2016-Dec-08 09:34N 59°20' E 018°05'0 0.0
2016-Dec-08 08:33N 59°20' E 018°05'0 0.0
2016-Dec-08 07:34N 59°20' E 018°05'0 0.0
2016-Dec-08 06:34N 59°20' E 018°05'0 0.0
2016-Dec-08 05:34N 59°20' E 018°05'0 0.0
2016-Dec-08 04:34N 59°20' E 018°05'0 0.0
2016-Dec-08 03:34N 59°20' E 018°05'0 0.0
2016-Dec-08 02:33N 59°20' E 018°05'0 0.0
2016-Dec-08 01:33N 59°20' E 018°05'0 0.0
2016-Dec-08 00:33N 59°20' E 018°05'0 0.0
2016-Dec-07 23:34N 59°20' E 018°05'0 0.0
2016-Dec-07 22:33N 59°20' E 018°05'0 0.0
2016-Dec-07 21:34N 59°20' E 018°05'0 0.0
2016-Dec-07 20:34N 59°20' E 018°05'3 2.5
2016-Dec-07 19:34N 59°19' E 018°09'2 1.9
2016-Dec-07 18:29N 59°19' E 018°13'5 4.9
2016-Dec-07 17:34N 59°20' E 018°05'0 0.0
2016-Dec-07 16:34N 59°20' E 018°05'4 4.3
2016-Dec-07 15:32N 59°20' E 018°13'2 1.8
2016-Dec-07 14:33N 59°19' E 018°10'3 2.7
2016-Dec-07 13:33N 59°20' E 018°05'2 1.5
2016-Dec-07 12:34N 59°19' E 018°07'1 1.0
2016-Dec-07 11:34N 59°19' E 018°09'3 2.5
2016-Dec-07 10:34N 59°20' E 018°05'0 0.0
2016-Dec-07 09:34N 59°20' E 018°05'0 0.0
2016-Dec-07 08:34N 59°20' E 018°05'0 0.0
2016-Dec-07 07:33N 59°20' E 018°05'0 0.0
2016-Dec-07 06:33N 59°20' E 018°05'0 0.0
2016-Dec-07 05:34N 59°20' E 018°05'0 0.0
2016-Dec-07 04:33N 59°20' E 018°05'0 0.0
2016-Dec-07 03:34N 59°20' E 018°05'0 0.0
2016-Dec-07 02:34N 59°20' E 018°05'0 0.0
2016-Dec-07 01:34N 59°20' E 018°05'0 0.0
2016-Dec-07 00:33N 59°20' E 018°05'0 0.0
2016-Dec-06 23:34N 59°20' E 018°05'0 0.0
2016-Dec-06 22:34N 59°20' E 018°05'0 0.0
2016-Dec-06 21:33N 59°20' E 018°05'0 0.0
2016-Dec-06 20:33N 59°20' E 018°05'5 2.3
2016-Dec-06 18:33N 59°18' E 018°13'5 4.6
2016-Dec-06 17:34N 59°20' E 018°05'0 0.1
2016-Dec-06 16:33N 59°20' E 018°05'5 4.5
2016-Dec-06 15:33N 59°19' E 018°13'3 2.7
2016-Dec-06 14:34N 59°19' E 018°08'2 1.9
2016-Dec-06 13:33N 59°20' E 018°05'2 1.7
2016-Dec-06 12:34N 59°19' E 018°08'1 0.6
2016-Dec-06 11:34N 59°19' E 018°09'2 2.2
2016-Dec-06 10:33N 59°20' E 018°05'0 0.0
2016-Dec-06 09:33N 59°20' E 018°05'0 0.0
2016-Dec-06 08:34N 59°20' E 018°05'0 0.0
2016-Dec-06 07:33N 59°20' E 018°05'0 0.0
2016-Dec-06 06:33N 59°20' E 018°05'0 0.0
2016-Dec-06 05:34N 59°20' E 018°05'0 0.0
2016-Dec-06 04:33N 59°20' E 018°05'0 0.0
2016-Dec-06 03:33N 59°20' E 018°05'0 0.0
2016-Dec-06 02:34N 59°20' E 018°05'0 0.0
2016-Dec-06 01:33N 59°20' E 018°05'0 0.0
2016-Dec-06 00:33N 59°20' E 018°05'0 0.0
2016-Dec-05 23:34N 59°20' E 018°05'0 0.0
2016-Dec-05 22:33N 59°20' E 018°05'0 0.0
2016-Dec-05 21:34N 59°20' E 018°05'0 0.0
2016-Dec-05 20:33N 59°20' E 018°05'2 2.0
2016-Dec-05 19:34N 59°19' E 018°08'2 2.1
2016-Dec-05 18:22N 59°20' E 018°13'4 5.4
2016-Dec-05 17:33N 59°20' E 018°05'0 0.0
2016-Dec-05 16:33N 59°20' E 018°05'4 4.0
2016-Dec-05 15:34N 59°20' E 018°12'1 1.1
2016-Dec-05 14:34N 59°19' E 018°11'3 3.2
2016-Dec-05 13:34N 59°20' E 018°05'2 1.6
2016-Dec-05 12:33N 59°19' E 018°08'0 0.4
2016-Dec-05 11:34N 59°19' E 018°08'2 2.1
2016-Dec-05 10:34N 59°20' E 018°05'0 0.0
2016-Dec-05 09:34N 59°20' E 018°05'0 0.0
2016-Dec-05 08:33N 59°20' E 018°05'0 0.0
2016-Dec-05 07:33N 59°20' E 018°05'0 0.0
2016-Dec-05 06:34N 59°20' E 018°05'0 0.0
2016-Dec-05 05:34N 59°20' E 018°05'0 0.0
2016-Dec-05 04:33N 59°20' E 018°05'0 0.0
2016-Dec-05 03:34N 59°20' E 018°05'0 0.0
2016-Dec-05 02:33N 59°20' E 018°05'0 0.0
2016-Dec-05 01:33N 59°20' E 018°05'0 0.0
2016-Dec-05 00:33N 59°20' E 018°05'0 0.0
2016-Dec-04 23:34N 59°20' E 018°05'0 0.0
2016-Dec-04 22:33N 59°20' E 018°05'0 0.0
2016-Dec-04 21:34N 59°20' E 018°05'0 0.0
2016-Dec-04 20:34N 59°20' E 018°05'0 0.0
2016-Dec-04 19:33N 59°20' E 018°05'0 0.0
2016-Dec-04 18:34N 59°20' E 018°05'0 0.0
2016-Dec-04 17:34N 59°20' E 018°05'1 1.2
2016-Dec-04 16:33N 59°19' E 018°06'2 2.0
2016-Dec-04 15:34N 59°19' E 018°02'1 1.2
2016-Dec-04 14:34N 59°20' E 018°05'0 0.1
2016-Dec-04 13:33N 59°20' E 018°05'4 4.2
2016-Dec-04 12:30N 59°20' E 018°13'2 1.8
2016-Dec-04 11:33N 59°19' E 018°10'3 2.8
2016-Dec-04 10:33N 59°20' E 018°05'0 0.0
2016-Dec-04 09:33N 59°20' E 018°05'0 0.0
2016-Dec-04 08:33N 59°20' E 018°05'0 0.0
2016-Dec-04 07:33N 59°20' E 018°05'0 0.0
2016-Dec-04 06:33N 59°20' E 018°05'0 0.0
2016-Dec-04 05:33N 59°20' E 018°05'0 0.0
2016-Dec-04 04:33N 59°20' E 018°05'0 0.0
2016-Dec-04 03:33N 59°20' E 018°05'0 0.0
2016-Dec-04 02:33N 59°20' E 018°05'0 0.0
2016-Dec-04 01:33N 59°20' E 018°05'0 0.0
2016-Dec-04 00:33N 59°20' E 018°05'0 0.0
2016-Dec-03 23:33N 59°20' E 018°05'0 0.0
2016-Dec-03 22:33N 59°20' E 018°05'0 0.0
2016-Dec-03 21:33N 59°20' E 018°05'0 0.0
2016-Dec-03 20:33N 59°20' E 018°05'0 0.0
2016-Dec-03 19:33N 59°20' E 018°05'6 5.5
2016-Dec-03 18:32N 59°21' E 018°15'3 0.3
2016-Dec-03 09:33N 59°23' E 018°20'9 8.8
2016-Dec-03 08:33N 59°20' E 018°05'0 0.0
2016-Dec-03 07:33N 59°20' E 018°05'0 0.0
2016-Dec-03 06:33N 59°20' E 018°05'0 0.0
2016-Dec-03 05:33N 59°20' E 018°05'0 0.0
2016-Dec-03 04:33N 59°20' E 018°05'0 0.0
2016-Dec-03 03:33N 59°20' E 018°05'0 0.0
2016-Dec-03 02:33N 59°20' E 018°05'0 0.0
2016-Dec-03 01:33N 59°20' E 018°05'0 0.0
2016-Dec-03 00:33N 59°20' E 018°05'0 0.0
2016-Dec-02 23:33N 59°20' E 018°05'0 0.0
2016-Dec-02 22:33N 59°20' E 018°05'0 0.0
2016-Dec-02 21:33N 59°20' E 018°05'0 0.0
2016-Dec-02 20:33N 59°20' E 018°05'2 1.8
2016-Dec-02 19:33N 59°19' E 018°08'3 2.8
2016-Dec-02 18:34N 59°18' E 018°13'4 4.5
2016-Dec-02 17:34N 59°19' E 018°05'0 0.2
2016-Dec-02 16:33N 59°20' E 018°05'4 4.3
2016-Dec-02 15:32N 59°20' E 018°13'2 1.8
2016-Dec-02 14:33N 59°19' E 018°10'3 2.7
2016-Dec-02 13:33N 59°20' E 018°05'1 1.1
2016-Dec-02 12:33N 59°19' E 018°06'2 2.3
2016-Dec-02 11:33N 59°20' E 018°11'3 3.1
2016-Dec-02 10:33N 59°20' E 018°05'0 0.0
2016-Dec-02 09:33N 59°20' E 018°05'0 0.0
2016-Dec-02 08:33N 59°20' E 018°05'0 0.0
2016-Dec-02 07:33N 59°20' E 018°05'0 0.0
2016-Dec-02 06:33N 59°20' E 018°05'0 0.0
2016-Dec-02 05:33N 59°20' E 018°05'0 0.0
2016-Dec-02 04:33N 59°20' E 018°05'0 0.0
2016-Dec-02 03:33N 59°20' E 018°05'0 0.0
2016-Dec-02 02:33N 59°20' E 018°05'0 0.0
2016-Dec-02 01:33N 59°20' E 018°05'0 0.0
2016-Dec-02 00:33N 59°20' E 018°05'0 0.0
2016-Dec-01 23:33N 59°20' E 018°05'0 0.0
2016-Dec-01 22:33N 59°20' E 018°05'0 0.0
2016-Dec-01 21:33N 59°20' E 018°05'0 0.0
2016-Dec-01 20:33N 59°20' E 018°05'2 1.6
2016-Dec-01 19:33N 59°19' E 018°07'3 3.1
2016-Dec-01 18:33N 59°18' E 018°13'4 4.5
2016-Dec-01 17:33N 59°19' E 018°05'0 0.3
2016-Dec-01 16:33N 59°20' E 018°05'4 4.2
2016-Dec-01 15:33N 59°20' E 018°13'1 1.3
2016-Dec-01 14:33N 59°20' E 018°10'3 2.9
2016-Dec-01 13:33N 59°20' E 018°05'1 1.3
2016-Dec-01 12:33N 59°19' E 018°07'2 1.7
2016-Dec-01 11:33N 59°20' E 018°10'3 2.8
2016-Dec-01 10:33N 59°20' E 018°05'0 0.0
2016-Dec-01 09:33N 59°20' E 018°05'0 0.0
2016-Dec-01 08:33N 59°20' E 018°05'0 0.0
2016-Dec-01 07:33N 59°20' E 018°05'0 0.0
2016-Dec-01 06:33N 59°20' E 018°05'0 0.0
2016-Dec-01 05:33N 59°20' E 018°05'0 0.0
2016-Dec-01 04:33N 59°20' E 018°05'  

Dump ship's entire track history